Terminal Aerodrome Forecast
Issued by NWS

Home | Current Version | Previous Version | Text Only | Print | Product List | Glossary On
Versions: 1 2 3 4 5 6 7 8 9 10 11 12 13 14 15 16 17 18 19 20 21 22 23 24 25
000
FTUS44 KHGX 040520
TAFSGR
TAF
KSGR 040520Z 0406/0506 14007KT P6SM SKC
      TEMPO 0410/0413 MIFG
     FM041500 15010KT P6SM SCT040 SCT250
      TEMPO 0419/0421 16009G18KT BKN040
     FM050300 13007KT P6SM SCT250=

USA.gov is the U.S. government's official web portal to all federal, state and local government web resources and services.